createdAt,value
2018-02-20T00:00:54.541Z,42.60
2018-02-20T00:03:22.217Z,41.37
2018-02-20T00:05:49.641Z,47.90
2018-02-20T00:08:17.064Z,43.22
2018-02-20T00:10:44.490Z,49.20
2018-02-20T00:13:11.923Z,49.30
2018-02-20T00:15:39.355Z,45.35
2018-02-20T00:18:06.778Z,47.17
2018-02-20T00:20:34.199Z,49.33
2018-02-20T00:23:04.503Z,48.33
2018-02-20T00:25:31.926Z,43.38
2018-02-20T00:27:59.353Z,54.72
2018-02-20T00:30:26.776Z,45.15
2018-02-20T00:32:54.198Z,48.83
2018-02-20T00:35:21.613Z,46.60
2018-02-20T00:37:49.041Z,50.28
2018-02-20T00:40:16.470Z,53.08
2018-02-20T00:42:43.897Z,49.50
2018-02-20T00:45:11.322Z,48.85
2018-02-20T00:47:38.766Z,44.75
2018-02-20T00:50:06.194Z,45.80
2018-02-20T00:52:33.644Z,48.85
2018-02-20T00:55:01.070Z,45.38
2018-02-20T00:57:28.506Z,50.58
2018-02-20T00:59:55.945Z,52.83
2018-02-20T01:02:23.369Z,46.63
2018-02-20T01:04:50.826Z,51.00
2018-02-20T01:07:18.250Z,49.03
2018-02-20T01:09:45.678Z,44.05
2018-02-20T01:12:13.102Z,46.28
2018-02-20T01:14:40.536Z,45.80
2018-02-20T01:17:07.950Z,49.20
2018-02-20T01:19:35.369Z,50.38
2018-02-20T01:22:02.821Z,52.08
2018-02-20T01:24:30.246Z,45.47
2018-02-20T01:26:57.681Z,52.42
2018-02-20T01:29:25.122Z,55.97
2018-02-20T01:31:52.554Z,51.55
2018-02-20T01:34:19.976Z,47.10
2018-02-20T01:36:47.398Z,46.78
2018-02-20T01:39:14.838Z,43.38
2018-02-20T01:41:42.275Z,43.58
2018-02-20T01:44:09.691Z,47.40
2018-02-20T01:46:37.110Z,49.17
2018-02-20T01:49:04.534Z,49.70
2018-02-20T01:51:31.951Z,46.88
2018-02-20T01:53:59.378Z,46.92
2018-02-20T01:56:26.804Z,48.42
2018-02-20T01:58:54.230Z,47.20
2018-02-20T02:01:21.651Z,44.80
2018-02-20T02:03:49.074Z,48.10
2018-02-20T02:06:16.506Z,45.65
2018-02-20T02:08:43.926Z,51.17
2018-02-20T02:11:11.354Z,45.97
2018-02-20T02:13:38.795Z,47.42
2018-02-20T02:16:06.219Z,46.67
2018-02-20T02:18:34.001Z,52.75
2018-02-20T02:21:01.425Z,53.05
2018-02-20T02:23:28.833Z,54.55
2018-02-20T02:25:56.256Z,47.67
2018-02-20T02:28:23.675Z,47.67
2018-02-20T02:30:51.098Z,52.17
2018-02-20T02:33:18.522Z,46.90
2018-02-20T02:35:45.953Z,52.30
2018-02-20T02:38:13.405Z,54.58
2018-02-20T02:40:40.821Z,51.13
2018-02-20T02:43:08.250Z,54.13
2018-02-20T02:45:35.655Z,52.55
2018-02-20T02:48:03.097Z,51.08
2018-02-20T02:50:30.517Z,53.75
2018-02-20T02:52:57.942Z,49.80
2018-02-20T02:55:25.358Z,56.33
2018-02-20T02:57:52.783Z,64.18
2018-02-20T03:00:20.211Z,62.38
2018-02-20T03:02:47.623Z,53.87
2018-02-20T03:05:15.050Z,54.00
2018-02-20T03:07:42.457Z,52.35
2018-02-20T03:10:09.882Z,50.80
2018-02-20T03:12:37.306Z,59.03
2018-02-20T03:15:04.725Z,55.85
2018-02-20T03:17:32.142Z,60.70
2018-02-20T03:19:59.554Z,66.90
2018-02-20T03:22:26.986Z,64.93
2018-02-20T03:24:54.413Z,64.60
2018-02-20T03:27:21.826Z,61.50
2018-02-20T03:29:49.243Z,61.92
2018-02-20T03:32:16.670Z,64.90
2018-02-20T03:34:44.089Z,69.22
2018-02-20T03:37:11.513Z,67.68
2018-02-20T03:39:38.930Z,68.45
2018-02-20T03:42:06.345Z,66.47
2018-02-20T03:44:33.762Z,63.65
2018-02-20T03:47:01.185Z,63.75
2018-02-20T03:49:28.605Z,58.33
2018-02-20T03:51:56.029Z,56.45
2018-02-20T03:54:23.446Z,63.05
2018-02-20T03:56:50.870Z,58.47
2018-02-20T03:59:18.294Z,58.70
2018-02-20T04:01:45.707Z,55.15
2018-02-20T04:04:13.135Z,48.47
2018-02-20T04:06:40.565Z,51.25
2018-02-20T04:09:07.982Z,56.08
2018-02-20T04:11:35.434Z,55.08
2018-02-20T04:14:02.846Z,57.75
2018-02-20T04:16:30.297Z,58.47
2018-02-20T04:18:57.715Z,62.65
2018-02-20T04:21:25.141Z,62.72
2018-02-20T04:23:52.570Z,55.40
2018-02-20T04:26:19.994Z,53.63
2018-02-20T04:28:47.439Z,57.80
2018-02-20T04:31:14.847Z,55.15
2018-02-20T04:33:42.261Z,53.75
2018-02-20T04:36:09.683Z,55.38
2018-02-20T04:38:37.103Z,52.83
2018-02-20T04:41:04.536Z,51.42
2018-02-20T04:43:31.968Z,58.55
2018-02-20T04:45:59.398Z,57.30
2018-02-20T04:48:27.742Z,60.20
2018-02-20T04:50:55.170Z,51.63
2018-02-20T04:53:22.585Z,55.45
2018-02-20T04:55:50.013Z,55.75
2018-02-20T04:58:17.425Z,53.08
2018-02-20T05:00:44.837Z,58.05
2018-02-20T05:03:12.272Z,54.47
2018-02-20T05:05:39.685Z,51.55
2018-02-20T05:08:07.109Z,51.17
2018-02-20T05:10:34.526Z,50.75
2018-02-20T05:13:01.941Z,49.63
2018-02-20T05:15:29.366Z,48.75
2018-02-20T05:17:56.791Z,52.65
2018-02-20T05:20:24.214Z,50.22
2018-02-20T05:22:51.631Z,53.08
2018-02-20T05:25:19.034Z,50.65
2018-02-20T05:27:46.465Z,50.47
2018-02-20T05:30:13.879Z,51.22
2018-02-20T05:32:41.298Z,51.83
2018-02-20T05:35:08.716Z,54.67
2018-02-20T05:37:36.146Z,50.22
2018-02-20T05:40:03.580Z,53.40
2018-02-20T05:42:31.003Z,46.28
2018-02-20T05:44:58.433Z,50.88
2018-02-20T05:47:25.877Z,53.50
2018-02-20T05:49:53.334Z,52.10
2018-02-20T05:52:20.748Z,52.83
2018-02-20T05:54:48.175Z,45.40
2018-02-20T05:57:15.602Z,48.13
2018-02-20T05:59:43.018Z,44.63
2018-02-20T06:02:10.449Z,48.30
2018-02-20T06:04:37.880Z,49.53
2018-02-20T06:07:05.301Z,46.95
2018-02-20T06:09:32.723Z,47.75
2018-02-20T06:12:00.151Z,54.35
2018-02-20T06:14:27.561Z,53.05
2018-02-20T06:16:54.998Z,51.40
2018-02-20T06:19:22.418Z,54.78
2018-02-20T06:21:49.835Z,56.78
2018-02-20T06:24:17.259Z,58.35
2018-02-20T06:26:44.690Z,55.28
2018-02-20T06:29:12.122Z,49.70
2018-02-20T06:31:39.550Z,49.30
2018-02-20T06:34:06.996Z,53.22
2018-02-20T06:36:34.411Z,52.35
2018-02-20T06:39:01.834Z,54.72
2018-02-20T06:41:29.258Z,49.88
2018-02-20T06:43:56.674Z,53.25
2018-02-20T06:46:24.103Z,57.67
2018-02-20T06:48:51.526Z,51.85
2018-02-20T06:51:18.962Z,52.00
2018-02-20T06:53:46.390Z,56.78
2018-02-20T06:56:13.814Z,60.38
2018-02-20T06:58:41.243Z,62.58
2018-02-20T07:01:08.668Z,64.43
2018-02-20T07:03:36.102Z,56.33
2018-02-20T07:06:03.527Z,62.78
2018-02-20T07:08:30.953Z,56.55
2018-02-20T07:10:58.369Z,57.10
2018-02-20T07:13:25.914Z,55.80
2018-02-20T07:15:53.334Z,53.42
2018-02-20T07:18:20.782Z,55.22
2018-02-20T07:20:48.542Z,69.93
2018-02-20T07:23:15.970Z,55.95
2018-02-20T07:25:43.393Z,56.08
2018-02-20T07:28:10.822Z,52.80
2018-02-20T07:30:38.239Z,52.15
2018-02-20T07:33:05.662Z,55.97
2018-02-20T07:35:33.090Z,58.28
2018-02-20T07:38:00.523Z,52.55
2018-02-20T07:40:27.942Z,57.03
2018-02-20T07:42:55.375Z,61.22
2018-02-20T07:45:22.806Z,59.20
2018-02-20T07:47:50.238Z,59.10
2018-02-20T07:50:17.655Z,55.12
2018-02-20T07:52:45.072Z,57.35
2018-02-20T07:55:12.503Z,61.10
2018-02-20T07:57:39.919Z,60.03
2018-02-20T08:00:07.347Z,55.60
2018-02-20T08:02:34.767Z,56.85
2018-02-20T08:05:02.195Z,60.70
2018-02-20T08:07:29.618Z,56.13
2018-02-20T08:09:57.033Z,58.83
2018-02-20T08:12:24.461Z,57.47
2018-02-20T08:14:51.878Z,57.30
2018-02-20T08:17:19.302Z,56.70
2018-02-20T08:19:46.730Z,60.92
2018-02-20T08:22:14.151Z,62.30
2018-02-20T08:24:41.574Z,65.55
2018-02-20T08:27:08.994Z,59.13
2018-02-20T08:29:36.418Z,53.97
2018-02-20T08:32:03.841Z,59.30
2018-02-20T08:34:31.347Z,59.47
2018-02-20T08:36:58.678Z,56.40
2018-02-20T08:39:26.090Z,55.15
2018-02-20T08:41:53.515Z,56.97
2018-02-20T08:44:20.930Z,55.72
2018-02-20T08:46:48.375Z,59.13
2018-02-20T08:49:15.798Z,55.83
2018-02-20T08:51:43.224Z,58.58
2018-02-20T08:54:10.650Z,60.33
2018-02-20T08:56:38.071Z,57.95
2018-02-20T08:59:05.490Z,56.25
2018-02-20T09:01:32.909Z,53.28
2018-02-20T09:04:00.362Z,50.95
2018-02-20T09:06:27.783Z,56.10
2018-02-20T09:08:55.215Z,52.80
2018-02-20T09:11:22.681Z,49.25
2018-02-20T09:13:50.086Z,47.33
2018-02-20T09:16:17.509Z,51.75
2018-02-20T09:18:44.972Z,49.70
2018-02-20T09:21:12.366Z,50.20
2018-02-20T09:23:39.790Z,51.03
2018-02-20T09:26:07.212Z,48.50
2018-02-20T09:28:34.642Z,46.63
2018-02-20T09:31:02.058Z,46.33
2018-02-20T09:33:29.478Z,46.67
2018-02-20T09:35:56.889Z,44.97
2018-02-20T09:38:24.308Z,45.00
2018-02-20T09:40:51.725Z,50.97
2018-02-20T09:43:19.138Z,42.47
2018-02-20T09:45:46.566Z,46.17
2018-02-20T09:48:13.982Z,49.17
2018-02-20T09:50:41.394Z,43.30
2018-02-20T09:53:08.809Z,48.57
2018-02-20T09:55:36.497Z,46.57
2018-02-20T09:58:03.910Z,42.50
2018-02-20T10:00:31.336Z,47.23
2018-02-20T10:02:58.747Z,47.90
2018-02-20T10:05:26.160Z,49.70
2018-02-20T10:07:53.618Z,44.57
2018-02-20T10:10:21.022Z,47.80
2018-02-20T10:12:48.467Z,43.83
2018-02-20T10:15:15.878Z,46.70
2018-02-20T10:17:43.353Z,50.13
2018-02-20T10:20:10.770Z,50.83
2018-02-20T10:22:38.177Z,45.97
2018-02-20T10:25:05.599Z,50.67
2018-02-20T10:27:33.011Z,47.33
2018-02-20T10:30:00.436Z,48.07
2018-02-20T10:32:27.838Z,42.20
2018-02-20T10:34:55.255Z,43.43
2018-02-20T10:37:22.669Z,45.80
2018-02-20T10:39:50.078Z,48.43
2018-02-20T10:42:17.494Z,44.50
2018-02-20T10:44:44.912Z,45.53
2018-02-20T10:47:12.329Z,48.00
2018-02-20T10:49:39.747Z,48.70
2018-02-20T10:52:07.157Z,48.40
2018-02-20T10:54:34.574Z,45.93
2018-02-20T10:57:01.990Z,45.23
2018-02-20T10:59:29.758Z,45.80
2018-02-20T11:01:57.177Z,42.40
2018-02-20T11:04:24.594Z,40.30
2018-02-20T11:06:52.018Z,43.93
2018-02-20T11:09:19.435Z,46.27
2018-02-20T11:11:46.858Z,43.87
2018-02-20T11:14:14.274Z,44.03
2018-02-20T11:16:41.690Z,48.70
2018-02-20T11:19:09.123Z,46.73
2018-02-20T11:21:36.558Z,53.23
2018-02-20T11:24:05.037Z,47.67
2018-02-20T11:26:32.451Z,48.27
2018-02-20T11:28:59.895Z,44.03
2018-02-20T11:31:27.311Z,44.47
2018-02-20T11:33:54.727Z,48.10
2018-02-20T11:36:22.153Z,42.87
2018-02-20T11:38:49.561Z,43.30
2018-02-20T11:41:16.985Z,41.77
2018-02-20T11:43:44.398Z,41.80
2018-02-20T11:46:11.811Z,44.30
2018-02-20T11:48:39.236Z,46.40
2018-02-20T11:51:06.650Z,39.97
2018-02-20T11:53:34.066Z,42.10
2018-02-20T11:56:01.478Z,39.73
2018-02-20T11:58:28.907Z,39.60
2018-02-20T12:00:56.330Z,44.97
2018-02-20T12:03:23.735Z,51.37
2018-02-20T12:05:51.153Z,47.13
2018-02-20T12:08:18.561Z,46.87
2018-02-20T12:10:45.978Z,48.07
2018-02-20T12:13:13.386Z,46.33
2018-02-20T12:15:40.811Z,51.90
2018-02-20T12:18:08.214Z,46.63
2018-02-20T12:20:35.665Z,52.10
2018-02-20T12:23:03.083Z,52.80
2018-02-20T12:25:30.491Z,51.10
2018-02-20T12:27:57.907Z,49.17
2018-02-20T12:30:25.321Z,54.87
2018-02-20T12:32:52.750Z,48.80
2018-02-20T12:35:20.173Z,53.33
2018-02-20T12:37:47.598Z,48.60
2018-02-20T12:40:15.022Z,46.53
2018-02-20T12:42:43.452Z,49.47
2018-02-20T12:45:10.904Z,45.23
2018-02-20T12:47:38.363Z,48.83
2018-02-20T12:50:05.781Z,44.30
2018-02-20T12:52:33.202Z,44.13
2018-02-20T12:55:00.640Z,46.93
2018-02-20T12:57:28.112Z,49.63
2018-02-20T12:59:55.515Z,52.20
2018-02-20T13:02:22.953Z,60.03
2018-02-20T13:04:50.363Z,64.23
2018-02-20T13:07:17.876Z,61.60
2018-02-20T13:09:45.310Z,55.23
2018-02-20T13:12:12.829Z,61.57
2018-02-20T13:14:40.264Z,62.03
2018-02-20T13:17:07.708Z,55.80
2018-02-20T13:19:35.122Z,65.43
2018-02-20T13:22:02.541Z,58.47
2018-02-20T13:24:30.011Z,58.63
2018-02-20T13:26:57.458Z,57.87
2018-02-20T13:29:28.928Z,55.80
2018-02-20T13:31:56.405Z,65.47
2018-02-20T13:34:23.839Z,58.70
2018-02-20T13:36:51.270Z,57.13
2018-02-20T13:39:18.694Z,65.07
2018-02-20T13:41:46.123Z,67.60
2018-02-20T13:44:13.542Z,64.40
2018-02-20T13:46:40.966Z,57.40
2018-02-20T13:49:08.387Z,63.10
2018-02-20T13:51:35.811Z,63.07
2018-02-20T13:54:03.233Z,62.40
2018-02-20T13:56:30.660Z,64.63
2018-02-20T13:58:58.900Z,62.03
2018-02-20T14:01:26.318Z,62.93
2018-02-20T14:03:53.742Z,59.73
2018-02-20T14:06:21.166Z,67.47
2018-02-20T14:08:48.578Z,61.73
2018-02-20T14:11:16.003Z,64.47
2018-02-20T14:13:43.414Z,61.17
2018-02-20T14:16:10.858Z,63.43
2018-02-20T14:18:38.266Z,60.90
2018-02-20T14:21:05.675Z,64.90
2018-02-20T14:23:33.103Z,65.23
2018-02-20T14:26:00.516Z,65.60
2018-02-20T14:28:27.944Z,58.30
2018-02-20T14:30:55.349Z,55.23
2018-02-20T14:33:22.790Z,50.20
2018-02-20T14:35:50.203Z,56.60
2018-02-20T14:38:17.613Z,49.10
2018-02-20T14:40:45.031Z,50.43
2018-02-20T14:43:12.501Z,50.67
2018-02-20T14:45:39.934Z,48.10
2018-02-20T14:48:07.855Z,43.03
2018-02-20T14:50:35.277Z,42.50
2018-02-20T14:53:02.691Z,32.23
2018-02-20T14:55:30.105Z,34.47
2018-02-20T14:57:57.541Z,28.73
2018-02-20T15:00:24.963Z,31.13
2018-02-20T15:02:52.381Z,33.90
2018-02-20T15:05:19.790Z,27.27
2018-02-20T15:07:47.215Z,28.87
2018-02-20T15:10:14.635Z,26.17
2018-02-20T15:12:42.142Z,33.50
2018-02-20T15:15:09.559Z,28.40
2018-02-20T15:17:36.970Z,28.10
2018-02-20T15:20:04.391Z,25.50
2018-02-20T15:22:31.839Z,27.77
2018-02-20T15:25:00.275Z,29.47
2018-02-20T15:27:27.706Z,30.20
2018-02-20T15:29:55.127Z,33.07
2018-02-20T15:32:22.570Z,33.43
2018-02-20T15:34:49.980Z,38.17
2018-02-20T15:37:17.403Z,32.37
2018-02-20T15:39:44.816Z,33.43
2018-02-20T15:42:12.241Z,32.90
2018-02-20T15:44:39.657Z,29.43
2018-02-20T15:47:07.084Z,32.47
2018-02-20T15:49:34.550Z,32.40
2018-02-20T15:52:01.994Z,28.40
2018-02-20T15:54:29.422Z,30.37
2018-02-20T15:56:56.898Z,29.00
2018-02-20T15:59:24.322Z,26.93
2018-02-20T16:01:51.777Z,30.37
2018-02-20T16:04:19.230Z,31.17
2018-02-20T16:06:46.665Z,36.73
2018-02-20T16:09:14.390Z,36.10
2018-02-20T16:11:41.844Z,35.90
2018-02-20T16:14:09.265Z,39.23
2018-02-20T16:16:36.688Z,39.63
2018-02-20T16:19:04.090Z,38.77
2018-02-20T16:21:31.502Z,39.27
2018-02-20T16:23:58.921Z,38.87
2018-02-20T16:26:26.330Z,43.37
2018-02-20T16:28:53.744Z,48.90
2018-02-20T16:31:21.166Z,42.63
2018-02-20T16:33:48.678Z,47.40
2018-02-20T16:36:16.098Z,42.83
2018-02-20T16:38:43.510Z,40.83
2018-02-20T16:41:10.923Z,45.87
2018-02-20T16:43:38.348Z,48.90
2018-02-20T16:46:05.769Z,43.90
2018-02-20T16:48:33.194Z,50.10
2018-02-20T16:51:00.606Z,49.73
2018-02-20T16:53:28.025Z,47.13
2018-02-20T16:55:55.442Z,47.97
2018-02-20T16:58:22.858Z,45.10
2018-02-20T17:00:50.276Z,50.00
2018-02-20T17:03:17.682Z,50.00
2018-02-20T17:05:45.128Z,58.50
2018-02-20T17:08:12.534Z,48.03
2018-02-20T17:10:39.970Z,59.70
2018-02-20T17:13:07.393Z,56.78
2018-02-20T17:15:34.818Z,56.25
2018-02-20T17:18:02.257Z,59.80
2018-02-20T17:20:29.702Z,54.60
2018-02-20T17:22:57.126Z,63.60
2018-02-20T17:25:24.538Z,61.60
2018-02-20T17:27:52.277Z,61.45
2018-02-20T17:30:19.705Z,55.47
2018-02-20T17:32:47.127Z,59.83
2018-02-20T17:35:14.555Z,64.10
2018-02-20T17:37:41.978Z,64.50
2018-02-20T17:40:09.394Z,68.63
2018-02-20T17:42:36.822Z,63.40
2018-02-20T17:45:04.258Z,64.65
2018-02-20T17:47:31.693Z,64.85
2018-02-20T17:49:59.154Z,64.10
2018-02-20T17:52:26.575Z,60.93
2018-02-20T17:54:53.990Z,61.15
2018-02-20T17:57:21.419Z,66.75
2018-02-20T17:59:48.845Z,65.53
2018-02-20T18:02:16.275Z,61.35
2018-02-20T18:04:43.706Z,69.68
2018-02-20T18:07:11.129Z,63.90
2018-02-20T18:09:38.550Z,65.87
2018-02-20T18:12:05.969Z,81.57
2018-02-20T18:14:33.406Z,71.30
2018-02-20T18:17:00.834Z,66.93
2018-02-20T18:19:28.247Z,67.12
2018-02-20T18:21:55.674Z,67.50
2018-02-20T18:24:23.096Z,66.57
2018-02-20T18:26:50.551Z,59.65
2018-02-20T18:29:17.967Z,65.32
2018-02-20T18:31:45.419Z,61.47
2018-02-20T18:34:12.846Z,67.12
2018-02-20T18:36:40.292Z,64.78
2018-02-20T18:39:07.702Z,70.28
2018-02-20T18:41:35.134Z,58.87
2018-02-20T18:44:02.561Z,63.17
2018-02-20T18:46:30.029Z,61.28
2018-02-20T18:48:57.444Z,67.43
2018-02-20T18:51:24.877Z,64.45
2018-02-20T18:53:52.302Z,62.95
2018-02-20T18:56:19.735Z,59.45
2018-02-20T18:58:47.158Z,62.33
2018-02-20T19:01:15.614Z,64.10
2018-02-20T19:03:43.038Z,63.15
2018-02-20T19:06:10.457Z,60.83
2018-02-20T19:08:37.889Z,57.33
2018-02-20T19:11:05.310Z,62.88
2018-02-20T19:13:32.755Z,65.93
2018-02-20T19:16:00.185Z,70.40
2018-02-20T19:18:27.605Z,62.00
2018-02-20T19:20:55.035Z,62.28
2018-02-20T19:23:22.518Z,54.45
2018-02-20T19:25:49.945Z,65.55
2018-02-20T19:28:17.390Z,64.72
2018-02-20T19:30:44.817Z,65.43
2018-02-20T19:33:12.241Z,67.82
2018-02-20T19:35:39.670Z,62.50
2018-02-20T19:38:07.097Z,64.50
2018-02-20T19:40:34.514Z,62.62
2018-02-20T19:43:01.943Z,70.47
2018-02-20T19:45:29.354Z,62.60
2018-02-20T19:47:56.794Z,62.58
2018-02-20T19:50:24.214Z,61.33
2018-02-20T19:52:51.654Z,67.35
2018-02-20T19:55:19.073Z,62.30
2018-02-20T19:57:46.503Z,63.10
2018-02-20T20:00:13.943Z,59.40
2018-02-20T20:02:41.429Z,67.53
2018-02-20T20:05:08.865Z,65.70
2018-02-20T20:07:36.287Z,64.10
2018-02-20T20:10:03.743Z,66.45
2018-02-20T20:12:31.168Z,73.25
2018-02-20T20:14:58.586Z,71.68
2018-02-20T20:17:26.029Z,71.35
2018-02-20T20:19:53.446Z,61.40
2018-02-20T20:22:20.895Z,72.10
2018-02-20T20:24:48.323Z,66.75
2018-02-20T20:27:15.746Z,69.18
2018-02-20T20:29:43.175Z,69.03
2018-02-20T20:32:10.592Z,69.37
2018-02-20T20:34:38.022Z,66.45
2018-02-20T20:37:05.446Z,70.15
2018-02-20T20:39:32.869Z,68.78
2018-02-20T20:42:00.285Z,78.30
2018-02-20T20:44:27.718Z,65.10
2018-02-20T20:46:55.140Z,64.57
2018-02-20T20:49:22.574Z,71.25
2018-02-20T20:51:49.998Z,70.53
2018-02-20T20:54:17.426Z,72.18
2018-02-20T20:56:45.207Z,70.18
2018-02-20T20:59:12.630Z,72.55
2018-02-20T21:01:40.050Z,67.30
2018-02-20T21:04:07.482Z,68.97
2018-02-20T21:06:34.903Z,75.72
2018-02-20T21:09:02.362Z,72.25
2018-02-20T21:11:29.759Z,70.28
2018-02-20T21:13:57.175Z,73.47
2018-02-20T21:16:24.596Z,77.60
2018-02-20T21:18:52.022Z,74.75
2018-02-20T21:21:19.780Z,80.10
2018-02-20T21:23:47.203Z,70.55
2018-02-20T21:26:14.617Z,76.18
2018-02-20T21:28:42.046Z,78.40
2018-02-20T21:31:09.769Z,74.93
2018-02-20T21:33:37.210Z,70.70
2018-02-20T21:36:04.643Z,75.80
2018-02-20T21:38:32.061Z,76.32
2018-02-20T21:40:59.490Z,74.07
2018-02-20T21:43:26.916Z,79.40
2018-02-20T21:45:54.354Z,80.22
2018-02-20T21:48:21.887Z,77.95
2018-02-20T21:50:49.789Z,74.68
2018-02-20T21:53:17.163Z,77.70
2018-02-20T21:55:44.582Z,83.07
2018-02-20T21:58:12.018Z,77.97
2018-02-20T22:00:39.499Z,77.65
2018-02-20T22:03:06.870Z,81.50
2018-02-20T22:05:34.294Z,78.62
2018-02-20T22:08:01.714Z,74.43
2018-02-20T22:10:29.138Z,76.80
2018-02-20T22:12:56.553Z,82.88
2018-02-20T22:15:23.987Z,84.93
2018-02-20T22:17:51.417Z,84.87
2018-02-20T22:20:18.827Z,77.80
2018-02-20T22:22:46.258Z,76.43
2018-02-20T22:25:13.678Z,88.80
2018-02-20T22:27:41.101Z,83.40
2018-02-20T22:30:08.518Z,89.55
2018-02-20T22:32:35.934Z,84.30
2018-02-20T22:35:03.355Z,85.53
2018-02-20T22:37:30.778Z,85.28
2018-02-20T22:39:58.197Z,84.95
2018-02-20T22:42:25.618Z,84.60
2018-02-20T22:44:53.034Z,82.60
2018-02-20T22:47:20.455Z,91.57
2018-02-20T22:49:47.871Z,83.70
2018-02-20T22:52:15.297Z,83.57
2018-02-20T22:54:42.705Z,92.70
2018-02-20T22:57:10.148Z,90.28
2018-02-20T22:59:37.538Z,92.75
2018-02-20T23:02:04.966Z,85.00
2018-02-20T23:04:32.733Z,94.95
2018-02-20T23:07:00.179Z,83.70
2018-02-20T23:09:27.578Z,84.35
2018-02-20T23:11:55.033Z,87.40
2018-02-20T23:14:22.446Z,85.45
2018-02-20T23:16:49.885Z,95.03
2018-02-20T23:19:17.294Z,80.68
2018-02-20T23:21:44.706Z,88.28
2018-02-20T23:24:12.145Z,84.28
2018-02-20T23:26:39.554Z,89.85
2018-02-20T23:29:06.982Z,83.65
2018-02-20T23:31:34.406Z,98.25
2018-02-20T23:34:01.822Z,95.60
2018-02-20T23:36:29.245Z,89.50
2018-02-20T23:38:56.670Z,86.47
2018-02-20T23:41:24.418Z,90.05
2018-02-20T23:43:51.847Z,86.50
2018-02-20T23:46:19.266Z,91.00
2018-02-20T23:48:46.684Z,90.55
2018-02-20T23:51:19.602Z,91.28
2018-02-20T23:53:47.433Z,84.07
2018-02-20T23:56:14.861Z,90.93
2018-02-20T23:58:42.277Z,86.12
